Latest Weather Observations for Longerenong

IDV60801

Issued at 1:35 am EST Sunday 21 September 2014 (issued every 30 minutes, with the page automatically refreshed every 10 minutes)

About weather observations | Map of weather stations | Latest weather observations for VIC | Other Formats
Station Details ID: 079028 Name: LONGERENONG Lat: -36.67 Lon: 142.30 Height: 133.0 m
Data from the previous 72 hours. | See also: Recent months at Longerenong
Date/Time
EST
Temp
°C
App
Temp
°C
Dew
Point
Rel
Hum
%
Delta-T
°C
Wind Press
QNH
hPa
Press
MSL
hPa
Rain
since 9 am
mm
Dir
 
Spd
km/h
Gust
km/h
Spd
kts
Gust
kts
21/01:30am 4.5 1.0 3.3 92 0.5 SE 11 13 6 7 - - 0.0
21/01:00am 4.4 1.2 2.9 90 0.6 SE 9 11 5 6 - - 0.0
21/12:30am 4.3 0.9 2.0 85 0.9 SE 9 11 5 6 - - 0.0
21/12:00am 5.1 1.9 3.0 86 0.9 SE 9 11 5 6 - - 0.0
 
Date/Time
EST
Temp
°C
App
Temp
°C
Dew
Point
Rel
Hum
%
Delta-T
°C
Wind Press
QNH
hPa
Press
MSL
hPa
Rain
since 9 am
mm
Dir
 
Spd
km/h
Gust
km/h
Spd
kts
Gust
kts
20/11:30pm 6.2 2.7 3.5 83 1.1 ESE 11 13 6 7 - - 0.0
20/11:00pm 8.4 4.3 4.6 77 1.7 SE 15 20 8 11 - - 0.0
20/10:30pm 8.9 4.9 4.9 76 1.8 SE 15 22 8 12 - - 0.0
20/10:00pm 8.6 4.7 5.2 79 1.5 ESE 15 19 8 10 - - 0.0
20/09:30pm 9.1 5.2 5.3 77 1.7 SE 15 20 8 11 - - 0.0
20/09:00pm 9.7 6.3 5.7 76 1.8 SE 13 22 7 12 - - 0.0
20/08:30pm 7.8 4.3 3.5 74 1.9 SE 11 13 6 7 - - 0.0
20/08:00pm 8.4 4.9 3.3 70 2.2 SE 11 15 6 8 - - 0.0
20/07:30pm 10.5 6.6 3.5 62 3.1 SE 13 15 7 8 - - 0.0
20/07:00pm 11.6 7.7 3.6 58 3.6 SE 13 17 7 9 - - 0.0
20/06:30pm 12.8 9.0 4.0 55 4.0 SE 13 19 7 10 - - 0.0
20/06:00pm 15.1 10.7 4.8 50 4.9 ESE 17 22 9 12 - - 0.0
20/05:30pm 16.8 12.4 4.8 45 5.7 ESE 17 20 9 11 - - 0.0
20/05:00pm 17.7 14.2 3.6 39 6.6 S 11 17 6 9 - - 0.0
20/04:30pm 18.2 14.2 2.9 36 7.1 S 13 20 7 11 - - 0.0
20/04:00pm 18.1 14.8 2.4 35 7.2 S 9 17 5 9 - - 0.0
20/03:30pm 18.2 15.2 1.7 33 7.5 SW 7 15 4 8 - - 0.0
20/03:00pm 18.6 15.8 2.9 35 7.3 SW 7 15 4 8 - - 0.0
20/02:30pm 17.4 14.1 2.2 36 6.9 SE 9 17 5 9 - - 0.0
20/02:00pm 17.2 13.6 0.8 33 7.2 SSW 9 19 5 10 - - 0.0
20/01:30pm 17.5 14.0 1.1 33 7.3 S 9 17 5 9 - - 0.0
20/01:00pm 16.7 13.2 1.2 35 6.9 S 9 17 5 9 - - 0.0
20/12:30pm 16.8 13.0 2.0 37 6.7 S 11 28 6 15 - - 0.0
20/12:00pm 15.8 12.0 1.5 38 6.3 S 11 20 6 11 - - 0.0
20/11:30am 15.2 11.9 2.7 43 5.6 SSW 9 19 5 10 - - 0.0
20/11:00am 14.6 11.9 3.7 48 5.0 SW 7 15 4 8 - - 0.0
20/10:30am 13.6 10.8 3.4 50 4.6 S 7 15 4 8 - - 0.0
20/10:00am 13.6 11.0 4.2 53 4.3 SSE 7 15 4 8 - - 0.0
20/09:30am 13.2 9.5 4.6 56 4.0 ESE 13 19 7 10 - - 0.0
20/09:00am 11.2 8.5 5.7 69 2.6 SE 9 17 5 9 - - 0.0
20/08:30am 8.3 6.6 6.1 86 1.0 SE 4 7 2 4 - - 0.0
20/08:00am 5.3 4.2 4.9 97 0.2 CALM 0 0 0 0 - - 0.0
20/07:30am 2.5 0.8 1.9 96 0.2 CALM 0 2 0 1 - - 0.0
20/07:00am 1.0 -1.3 0.3 95 0.3 S 2 4 1 2 - - 0.0
20/06:30am -1.4 -4.8 -2.4 93 0.3 S 6 6 3 3 - - 0.0
20/06:00am -0.5 -3.8 -1.5 93 0.3 S 6 6 3 3 - - 0.0
20/05:30am 0.5 -2.7 -0.6 92 0.4 S 6 6 3 3 - - 0.0
20/05:00am 2.6 -0.4 1.7 94 0.4 SSE 7 9 4 5 - - 0.0
20/04:30am 4.2 1.5 3.5 95 0.3 ESE 7 9 4 5 - - 0.0
20/04:00am 4.3 1.2 3.7 96 0.3 ESE 9 11 5 6 - - 0.0
20/03:30am 3.9 1.1 3.3 96 0.2 ESE 7 9 4 5 - - 0.0
20/03:00am 4.2 1.5 3.6 96 0.2 ESE 7 7 4 4 - - 0.0
20/02:30am 4.2 1.1 3.8 97 0.2 ESE 9 9 5 5 - - 0.0
20/02:00am 3.3 0.6 2.6 95 0.3 SE 6 7 3 4 - - 0.0
20/01:30am 2.3 -0.6 1.3 93 0.4 SE 6 7 3 4 - - 0.0
20/01:00am 3.6 0.9 2.6 93 0.4 SE 6 7 3 4 - - 0.0
20/12:30am 4.2 1.3 2.7 90 0.6 ESE 7 9 4 5 - - 0.0
20/12:00am 5.0 1.9 3.7 91 0.5 ESE 9 13 5 7 - - 0.0
 
Date/Time
EST
Temp
°C
App
Temp
°C
Dew
Point
Rel
Hum
%
Delta-T
°C
Wind Press
QNH
hPa
Press
MSL
hPa
Rain
since 9 am
mm
Dir
 
Spd
km/h
Gust
km/h
Spd
kts
Gust
kts
19/11:30pm 5.7 3.4 4.8 94 0.4 ESE 6 7 3 4 - - 0.0
19/11:00pm 4.9 1.0 3.6 91 0.5 ESE 13 15 7 8 - - 0.0
19/10:30pm 5.5 1.9 3.2 85 1.0 ESE 11 13 6 7 - - 0.0
19/10:00pm 7.1 4.2 4.6 84 1.1 SE 9 13 5 7 - - 0.0
19/09:30pm 5.8 2.5 2.4 79 1.4 SE 9 13 5 7 - - 0.0
19/09:00pm 5.8 1.9 1.3 73 1.8 S 11 11 6 6 - - 0.0
19/08:30pm 7.2 3.4 1.9 69 2.2 S 11 13 6 7 - - 0.0
19/08:00pm 7.8 4.8 2.1 67 2.4 S 7 9 4 5 - - 0.0
19/07:30pm 8.6 5.6 2.0 63 2.8 SSW 7 9 4 5 - - 0.0
19/07:00pm 10.4 6.7 2.3 57 3.5 SSW 11 13 6 7 - - 0.0
19/06:30pm 12.1 8.4 2.3 51 4.3 SW 11 17 6 9 - - 0.0
19/06:00pm 13.9 10.2 2.5 46 5.1 SSW 11 19 6 10 - - 0.0
19/05:30pm 15.3 11.2 2.1 41 5.9 SW 13 19 7 10 - - 0.0
19/05:00pm 15.5 11.4 2.0 40 6.0 SSW 13 19 7 10 - - 0.0
19/04:30pm 16.9 13.2 2.1 37 6.7 S 11 26 6 14 - - 0.0
19/04:00pm 16.6 12.7 1.1 35 6.8 SW 11 24 6 13 - - 0.0
19/03:30pm 17.0 13.5 1.4 35 7.0 WSW 9 17 5 9 - - 0.0
19/03:00pm 16.3 11.1 2.3 39 6.3 SW 19 26 10 14 - - 0.0
19/02:30pm 16.8 13.6 2.8 39 6.4 S 9 17 5 9 - - 0.0
19/02:00pm 16.1 12.0 2.2 39 6.3 SSW 13 19 7 10 - - 0.0
19/01:30pm 15.7 12.7 1.8 39 6.2 SSW 7 17 4 9 - - 0.0
19/01:00pm 15.8 11.6 1.9 39 6.2 S 13 24 7 13 - - 0.0
19/12:30pm 15.3 11.9 2.1 41 5.9 W 9 19 5 10 - - 0.0
19/12:00pm 14.7 11.8 2.6 44 5.4 SE 7 13 4 7 - - 0.0
19/11:30am 14.0 11.2 2.9 47 5.0 SW 7 13 4 7 - - 0.0
19/11:00am 12.9 9.6 2.5 49 4.6 S 9 15 5 8 - - 0.0
19/10:30am 13.1 10.5 4.0 54 4.2 SW 7 15 4 8 - - 0.0
19/10:00am 12.1 9.7 4.3 59 3.6 S 6 11 3 6 - - 0.0
19/09:30am 10.7 8.3 4.4 65 2.8 SSW 6 7 3 4 - - 0.0
19/09:00am 9.0 6.7 4.6 74 2.0 SW 6 9 3 5 - - 0.0
19/08:30am 6.5 4.2 5.0 90 0.7 SW 6 7 3 4 - - 0.0
19/08:00am 3.5 1.3 3.1 97 0.2 SW 4 6 2 3 - - 0.0
19/07:30am -0.8 -3.0 -1.4 96 0.2 CALM 0 0 0 0 - - 0.0
19/07:00am -2.7 -5.1 -3.4 95 0.1 CALM 0 0 0 0 - - 0.0
19/06:30am -2.1 -4.5 -2.9 94 0.2 CALM 0 0 0 0 - - 0.0
19/06:00am -3.1 -5.6 -3.8 95 0.1 CALM 0 0 0 0 - - 0.0
19/05:30am -1.6 -3.9 -2.2 96 0.1 CALM 0 0 0 0 - - 0.0
19/05:00am -0.3 -3.6 -0.9 96 0.2 SW 6 7 3 4 - - 0.0
19/04:30am -2.0 -5.1 -2.7 95 0.1 SW 4 6 2 3 - - 0.0
19/04:00am -1.8 -5.2 -2.4 96 0.1 SW 6 6 3 3 - - 0.0
19/03:30am -1.1 -4.5 -1.7 96 0.2 SW 6 7 3 4 - - 0.0
19/03:00am -0.8 -4.1 -1.4 96 0.2 SW 6 6 3 3 - - 0.0
19/02:30am 1.2 -1.8 0.6 96 0.2 SSW 6 7 3 4 - - 0.0
19/02:00am -1.0 -4.0 -1.7 95 0.2 SSW 4 6 2 3 - - 0.0
19/01:30am -1.5 -4.6 -2.3 94 0.2 SSW 4 6 2 3 - - 0.0
19/01:00am 1.2 -1.5 0.5 95 0.3 S 4 6 2 3 - - 0.0
19/12:30am 2.9 1.3 2.3 96 0.2 CALM 0 2 0 1 - - 0.0
19/12:00am 1.7 -1.3 1.1 96 0.2 SSW 6 7 3 4 - - 0.0
 
Date/Time
EST
Temp
°C
App
Temp
°C
Dew
Point
Rel
Hum
%
Delta-T
°C
Wind Press
QNH
hPa
Press
MSL
hPa
Rain
since 9 am
mm
Dir
 
Spd
km/h
Gust
km/h
Spd
kts
Gust
kts
18/11:30pm 2.3 0.6 1.6 95 0.3 CALM 0 0 0 0 - - 0.0
18/11:00pm 2.4 0.7 1.7 95 0.3 CALM 0 2 0 1 - - 0.0
18/10:30pm 3.0 0.2 1.8 92 0.5 SSE 6 6 3 3 - - 0.0
18/10:00pm 2.9 -0.1 0.8 86 0.8 SSE 6 7 3 4 - - 0.0
18/09:30pm 5.0 2.9 3.7 91 0.5 SSE 4 6 2 3 - - 0.0
18/09:00pm 5.5 3.7 3.5 87 0.8 SSE 2 4 1 2 - - 0.0
18/08:30pm 5.4 2.6 3.4 87 0.8 S 7 9 4 5 - - 0.0
18/08:00pm 6.7 4.2 4.0 83 1.2 S 6 7 3 4 - - 0.0
18/07:30pm 7.7 5.2 4.5 80 1.4 S 7 11 4 6 - - 0.0
18/07:00pm 8.8 6.0 5.0 77 1.7 SSW 9 11 5 6 - - 0.0
18/06:30pm 9.5 6.2 4.5 71 2.2 SSW 11 15 6 8 - - 0.0
18/06:00pm 10.9 8.0 4.4 64 2.9 SSW 9 11 5 6 - - 0.0
18/05:30pm 12.7 8.3 4.9 59 3.6 SSW 17 20 9 11 - - 0.0
18/05:00pm 13.8 8.8 4.7 54 4.2 S 20 26 11 14 - - 0.0
18/04:30pm 12.9 9.2 4.3 56 3.9 SW 13 20 7 11 - - 0.0
18/04:00pm 15.0 10.7 5.2 52 4.7 SW 17 28 9 15 - - 0.0
18/03:30pm 13.9 8.8 4.2 52 4.5 SSW 20 28 11 15 - - 0.0
18/03:00pm 14.7 11.0 4.4 50 4.8 SW 13 20 7 11 - - 0.0
18/02:30pm 14.0 9.8 3.8 50 4.7 SW 15 22 8 12 - - 0.0
18/02:00pm 14.0 9.9 4.3 52 4.5 SW 15 20 8 11 - - 0.0
18/01:30pm 13.8 10.9 4.7 54 4.2 SSW 9 17 5 9 - - 0.0
18/01:00pm 13.1 9.1 4.8 57 3.9 SW 15 20 8 11 - - 0.0
18/12:30pm 12.9 8.4 4.1 55 4.0 SW 17 22 9 12 - - 0.0
18/12:00pm 12.3 9.0 4.3 58 3.6 WSW 11 19 6 10 - - 0.0
18/11:30am 12.2 8.9 4.4 59 3.6 SSW 11 20 6 11 - - 0.0
18/11:00am 11.5 7.4 4.3 61 3.3 SSW 15 22 8 12 - - 0.0
18/10:30am 12.0 7.5 4.2 59 3.5 SSW 17 26 9 14 - - 0.0
18/10:00am 12.0 7.2 4.5 60 3.4 SSW 19 26 10 14 - - 0.0
18/09:30am 11.0 6.6 4.5 64 2.9 SSW 17 26 9 14 - - 0.0
18/09:00am 9.8 6.4 4.2 68 2.5 SW 11 15 6 8 - - 0.2
18/08:30am 8.7 5.7 3.9 72 2.1 SW 9 15 5 8 - - 0.2
18/08:00am 7.4 4.3 3.6 77 1.6 SW 9 13 5 7 - - 0.2
18/07:30am 5.3 2.8 3.5 88 0.8 WSW 6 7 3 4 - - 0.2
18/07:00am 3.7 0.8 2.5 92 0.5 WSW 7 11 4 6 - - 0.2
18/06:30am 2.2 -1.0 0.9 91 0.5 SW 7 9 4 5 - - 0.2
18/06:00am 2.0 -0.2 1.1 94 0.3 SW 2 4 1 2 - - 0.2
18/05:30am 0.6 -2.6 -0.7 91 0.5 WSW 6 7 3 4 - - 0.2
18/05:00am 1.3 -1.4 0.1 92 0.4 WSW 4 6 2 3 - - 0.2
18/04:30am 1.1 -2.1 -0.4 90 0.5 W 6 7 3 4 - - 0.2
18/04:00am 1.8 -0.9 0.6 92 0.5 E 4 7 2 4 - - 0.2
18/03:30am 2.9 1.2 1.7 92 0.5 CALM 0 0 0 0 - - 0.2
18/03:00am 2.8 1.0 1.3 90 0.6 CALM 0 0 0 0 - - 0.2
18/02:30am 3.0 1.2 1.1 87 0.7 CALM 0 2 0 1 - - 0.2
18/02:00am 4.1 1.0 1.5 83 1.0 S 7 11 4 6 - - 0.2

Other Formats:

Comma delimited format used in spreadsheet applications
http://www.bom.gov.au/fwo/IDV60801/IDV60801.95835.axf

JavaScript Object Notation format (JSON) in row-major order
http://www.bom.gov.au/fwo/IDV60801/IDV60801.95835.json